createdAt,value
2023-10-24T00:01:08.854Z,2.80
2023-10-24T00:03:36.549Z,2.60
2023-10-24T00:06:04.813Z,3.00
2023-10-24T00:08:32.468Z,2.77
2023-10-24T00:11:00.759Z,2.90
2023-10-24T00:13:43.466Z,3.07
2023-10-24T00:16:12.795Z,3.10
2023-10-24T00:18:40.523Z,3.03
2023-10-24T00:21:08.470Z,3.27
2023-10-24T00:23:36.119Z,3.07
2023-10-24T00:26:03.771Z,3.53
2023-10-24T00:28:31.631Z,3.40
2023-10-24T00:30:59.563Z,3.50
2023-10-24T00:33:28.611Z,2.93
2023-10-24T00:35:56.208Z,3.37
2023-10-24T00:38:23.801Z,3.23
2023-10-24T00:40:51.346Z,3.57
2023-10-24T00:43:18.987Z,3.03
2023-10-24T00:45:47.063Z,3.33
2023-10-24T00:48:14.741Z,3.30
2023-10-24T00:50:44.725Z,2.87
2023-10-24T00:53:12.352Z,3.50
2023-10-24T00:55:40.832Z,3.57
2023-10-24T00:58:09.393Z,3.43
2023-10-24T01:00:38.031Z,3.37
2023-10-24T01:03:05.655Z,3.43
2023-10-24T01:05:33.789Z,3.80
2023-10-24T01:08:02.816Z,3.47
2023-10-24T01:10:31.096Z,3.67
2023-10-24T01:12:59.001Z,3.20
2023-10-24T01:15:26.707Z,3.30
2023-10-24T01:17:54.674Z,3.20
2023-10-24T01:20:22.361Z,3.30
2023-10-24T01:22:51.446Z,3.47
2023-10-24T01:25:19.437Z,3.40
2023-10-24T01:27:54.741Z,3.20
2023-10-24T01:30:22.543Z,3.30
2023-10-24T01:32:50.348Z,3.37
2023-10-24T01:35:17.953Z,3.13
2023-10-24T01:37:45.578Z,3.30
2023-10-24T01:40:14.874Z,2.87
2023-10-24T01:42:42.708Z,3.20
2023-10-24T01:45:10.691Z,2.90
2023-10-24T01:47:38.394Z,3.43
2023-10-24T01:50:06.497Z,3.63
2023-10-24T01:52:34.291Z,3.60
2023-10-24T01:55:02.098Z,3.27
2023-10-24T01:57:31.098Z,2.90
2023-10-24T01:59:58.913Z,3.30
2023-10-24T02:02:27.793Z,4.33
2023-10-24T02:04:58.304Z,3.40
2023-10-24T02:07:28.580Z,3.67
2023-10-24T02:09:56.646Z,3.70
2023-10-24T02:12:24.684Z,3.73
2023-10-24T02:14:53.836Z,3.77
2023-10-24T02:17:21.680Z,3.83
2023-10-24T02:19:49.633Z,3.30
2023-10-24T02:22:17.282Z,3.53
2023-10-24T02:24:44.880Z,3.73
2023-10-24T02:27:12.472Z,3.83
2023-10-24T02:29:40.132Z,3.27
2023-10-24T02:32:10.063Z,3.33
2023-10-24T02:34:37.822Z,3.33
2023-10-24T02:37:05.650Z,2.50
2023-10-24T02:39:33.238Z,2.47
2023-10-24T02:42:01.431Z,3.20
2023-10-24T02:44:29.547Z,2.30
2023-10-24T02:46:57.824Z,2.50
2023-10-24T02:49:27.045Z,2.57
2023-10-24T02:51:54.677Z,2.40
2023-10-24T02:54:22.260Z,2.10
2023-10-24T02:56:50.285Z,2.30
2023-10-24T02:59:18.186Z,2.60
2023-10-24T03:01:45.848Z,2.27
2023-10-24T03:04:13.608Z,2.20
2023-10-24T03:06:43.076Z,2.20
2023-10-24T03:09:10.755Z,2.20
2023-10-24T03:11:38.895Z,2.33
2023-10-24T03:14:06.673Z,2.50
2023-10-24T03:16:35.834Z,2.30
2023-10-24T03:19:03.542Z,2.00
2023-10-24T03:21:31.411Z,2.50
2023-10-24T03:24:00.603Z,2.50
2023-10-24T03:26:28.243Z,2.30
2023-10-24T03:28:55.871Z,2.80
2023-10-24T03:31:23.755Z,2.53
2023-10-24T03:33:51.666Z,2.03
2023-10-24T03:36:19.358Z,2.20
2023-10-24T03:38:47.006Z,2.03
2023-10-24T03:41:16.067Z,2.30
2023-10-24T03:43:49.143Z,2.10
2023-10-24T03:46:17.272Z,2.53
2023-10-24T03:48:45.053Z,2.00
2023-10-24T03:51:12.686Z,2.07
2023-10-24T03:53:40.871Z,2.33
2023-10-24T03:56:08.525Z,2.30
2023-10-24T03:58:37.759Z,2.00
2023-10-24T04:01:06.523Z,2.23
2023-10-24T04:03:36.076Z,2.00
2023-10-24T04:06:04.567Z,1.77
2023-10-24T04:08:32.220Z,2.23
2023-10-24T04:10:59.866Z,2.10
2023-10-24T04:13:27.626Z,2.10
2023-10-24T04:16:00.471Z,2.27
2023-10-24T04:18:28.874Z,2.17
2023-10-24T04:20:56.650Z,2.00
2023-10-24T04:23:24.503Z,2.10
2023-10-24T04:25:52.207Z,2.27
2023-10-24T04:28:19.875Z,2.20
2023-10-24T04:30:48.177Z,1.70
2023-10-24T04:33:17.209Z,2.00
2023-10-24T04:35:47.113Z,1.70
2023-10-24T04:38:14.879Z,1.70
2023-10-24T04:40:42.584Z,1.70
2023-10-24T04:43:10.490Z,1.63
2023-10-24T04:45:38.518Z,1.70
2023-10-24T04:48:06.356Z,1.50
2023-10-24T04:50:37.305Z,1.10
2023-10-24T04:53:05.354Z,1.30
2023-10-24T04:55:33.020Z,1.17
2023-10-24T04:58:01.432Z,1.10
2023-10-24T05:00:29.139Z,1.20
2023-10-24T05:02:56.857Z,1.03
2023-10-24T05:05:24.541Z,1.17
2023-10-24T05:07:53.609Z,1.17
2023-10-24T05:10:21.924Z,1.10
2023-10-24T05:12:49.734Z,1.20
2023-10-24T05:15:17.446Z,1.00
2023-10-24T05:17:45.316Z,1.20
2023-10-24T05:20:18.115Z,1.30
2023-10-24T05:22:45.914Z,1.37
2023-10-24T05:25:15.092Z,1.40
2023-10-24T05:27:42.767Z,1.40
2023-10-24T05:30:11.499Z,1.40
2023-10-24T05:32:39.394Z,1.37
2023-10-24T05:35:07.241Z,1.20
2023-10-24T05:37:34.890Z,1.50
2023-10-24T05:40:03.782Z,1.30
2023-10-24T05:42:32.834Z,1.50
2023-10-24T05:45:00.881Z,1.50
2023-10-24T05:47:28.539Z,1.50
2023-10-24T05:49:56.273Z,1.60
2023-10-24T05:52:24.019Z,1.30
2023-10-24T05:54:51.706Z,1.50
2023-10-24T05:57:19.338Z,1.53
2023-10-24T05:59:48.423Z,1.60
2023-10-24T06:02:16.152Z,1.60
2023-10-24T06:04:44.062Z,1.77
2023-10-24T06:07:11.892Z,1.70
2023-10-24T06:09:39.531Z,2.00
2023-10-24T06:12:09.164Z,1.93
2023-10-24T06:14:36.856Z,1.93
2023-10-24T06:17:06.287Z,2.20
2023-10-24T06:19:41.194Z,2.00
2023-10-24T06:22:09.192Z,1.90
2023-10-24T06:24:37.373Z,1.97
2023-10-24T06:27:05.203Z,1.80
2023-10-24T06:29:33.088Z,1.93
2023-10-24T06:32:01.000Z,1.80
2023-10-24T06:34:30.102Z,1.70
2023-10-24T06:36:59.207Z,1.93
2023-10-24T06:39:28.747Z,2.10
2023-10-24T06:41:56.802Z,1.70
2023-10-24T06:44:24.431Z,1.90
2023-10-24T06:46:52.292Z,1.70
2023-10-24T06:49:19.966Z,1.80
2023-10-24T06:51:49.151Z,2.00
2023-10-24T06:54:17.179Z,1.90
2023-10-24T06:56:44.812Z,1.93
2023-10-24T06:59:12.748Z,1.90
2023-10-24T07:01:40.666Z,1.67
2023-10-24T07:04:08.400Z,1.60
2023-10-24T07:06:36.181Z,1.70
2023-10-24T07:09:05.426Z,1.53
2023-10-24T07:11:33.176Z,1.60
2023-10-24T07:14:01.845Z,1.70
2023-10-24T07:16:29.565Z,1.40
2023-10-24T07:18:57.317Z,1.57
2023-10-24T07:21:24.991Z,1.80
2023-10-24T07:23:52.794Z,1.40
2023-10-24T07:26:21.774Z,1.40
2023-10-24T07:28:49.441Z,1.27
2023-10-24T07:31:19.165Z,1.20
2023-10-24T07:33:47.485Z,1.10
2023-10-24T07:36:15.279Z,1.50
2023-10-24T07:38:43.065Z,1.37
2023-10-24T07:41:11.855Z,1.67
2023-10-24T07:43:41.199Z,1.80
2023-10-24T07:46:08.976Z,1.90
2023-10-24T07:48:36.602Z,1.60
2023-10-24T07:51:07.589Z,1.27
2023-10-24T07:53:35.613Z,1.50
2023-10-24T07:56:05.860Z,1.70
2023-10-24T07:58:33.673Z,1.90
2023-10-24T08:01:02.837Z,1.63
2023-10-24T08:03:30.660Z,2.00
2023-10-24T08:05:58.427Z,1.80
2023-10-24T08:08:26.071Z,1.60
2023-10-24T08:10:53.890Z,1.60
2023-10-24T08:13:21.599Z,1.53
2023-10-24T08:15:52.883Z,1.50
2023-10-24T08:18:22.025Z,1.50
2023-10-24T08:20:49.761Z,1.43
2023-10-24T08:23:17.633Z,1.20
2023-10-24T08:25:45.434Z,1.20
2023-10-24T08:28:13.229Z,1.00
2023-10-24T08:30:41.068Z,1.13
2023-10-24T08:33:08.805Z,1.33
2023-10-24T08:35:37.866Z,1.13
2023-10-24T08:38:05.846Z,1.07
2023-10-24T08:40:33.976Z,1.60
2023-10-24T08:43:02.525Z,1.10
2023-10-24T08:45:30.792Z,1.00
2023-10-24T08:48:00.061Z,1.40
2023-10-24T08:50:27.800Z,1.00
2023-10-24T08:52:56.922Z,1.07
2023-10-24T08:55:25.050Z,1.00
2023-10-24T08:57:53.232Z,1.10
2023-10-24T09:00:21.211Z,1.10
2023-10-24T09:02:49.225Z,0.93
2023-10-24T09:05:17.223Z,1.20
2023-10-24T09:07:44.987Z,1.00
2023-10-24T09:10:14.341Z,1.30
2023-10-24T09:12:42.896Z,1.10
2023-10-24T09:15:11.554Z,0.90
2023-10-24T09:17:39.663Z,1.07
2023-10-24T09:20:08.371Z,1.00
2023-10-24T09:22:36.820Z,1.00
2023-10-24T09:25:05.729Z,1.20
2023-10-24T09:27:35.084Z,1.00
2023-10-24T09:30:09.843Z,1.10
2023-10-24T09:32:37.610Z,1.17
2023-10-24T09:35:05.697Z,0.90
2023-10-24T09:37:33.719Z,1.53
2023-10-24T09:40:02.030Z,1.10
2023-10-24T09:42:33.608Z,1.20
2023-10-24T09:45:07.301Z,1.20
2023-10-24T09:47:36.294Z,1.40
2023-10-24T09:50:06.208Z,1.33
2023-10-24T09:52:34.301Z,1.17
2023-10-24T09:55:02.507Z,1.20
2023-10-24T09:57:31.228Z,1.33
2023-10-24T10:00:01.167Z,1.20
2023-10-24T10:02:30.909Z,1.50
2023-10-24T10:04:59.288Z,1.60
2023-10-24T10:07:28.319Z,1.40
2023-10-24T10:09:56.967Z,1.33
2023-10-24T10:12:28.709Z,1.50
2023-10-24T10:15:08.042Z,1.37
2023-10-24T10:17:40.731Z,1.20
2023-10-24T10:20:16.426Z,1.40
2023-10-24T10:22:52.963Z,1.20
2023-10-24T10:25:35.713Z,1.47
2023-10-24T10:28:12.996Z,1.30
2023-10-24T10:30:52.653Z,1.40
2023-10-24T10:33:25.753Z,1.50
2023-10-24T10:35:55.228Z,1.57
2023-10-24T10:38:41.968Z,1.60
2023-10-24T10:41:29.371Z,1.20
2023-10-24T10:43:59.390Z,1.30
2023-10-24T10:46:28.196Z,1.50
2023-10-24T10:49:00.672Z,1.57
2023-10-24T10:51:30.480Z,1.30
2023-10-24T10:54:03.676Z,1.30
2023-10-24T10:56:33.020Z,1.30
2023-10-24T10:59:25.917Z,1.50
2023-10-24T11:02:01.736Z,1.20
2023-10-24T11:04:32.355Z,1.17
2023-10-24T11:07:00.523Z,1.23
2023-10-24T11:09:29.751Z,1.43
2023-10-24T11:12:12.529Z,1.57
2023-10-24T11:14:40.436Z,1.57
2023-10-24T11:17:08.458Z,1.50
2023-10-24T11:19:37.882Z,1.60
2023-10-24T11:22:05.898Z,1.30
2023-10-24T11:24:33.791Z,1.20
2023-10-24T11:27:05.805Z,1.20
2023-10-24T11:29:35.450Z,1.40
2023-10-24T11:32:04.013Z,1.30
2023-10-24T11:34:32.031Z,1.30
2023-10-24T11:37:01.634Z,1.10
2023-10-24T11:39:31.824Z,1.50
2023-10-24T11:41:59.887Z,1.30
2023-10-24T11:44:27.591Z,1.10
2023-10-24T11:46:55.438Z,1.27
2023-10-24T11:49:33.354Z,1.53
2023-10-24T11:52:02.955Z,1.20
2023-10-24T11:54:30.875Z,1.20
2023-10-24T11:56:59.048Z,1.23
2023-10-24T11:59:33.693Z,1.50
2023-10-24T12:02:03.140Z,1.50
2023-10-24T12:04:32.000Z,1.40
2023-10-24T12:07:04.682Z,1.60
2023-10-24T12:09:33.804Z,2.33
2023-10-24T12:12:02.746Z,2.10
2023-10-24T12:14:30.708Z,2.63
2023-10-24T12:17:00.192Z,3.00
2023-10-24T12:19:28.384Z,2.90
2023-10-24T12:21:56.374Z,3.00
2023-10-24T12:24:25.781Z,2.50
2023-10-24T12:26:53.561Z,2.47
2023-10-24T12:29:21.579Z,2.20
2023-10-24T12:31:49.621Z,2.40
2023-10-24T12:34:17.568Z,2.30
2023-10-24T12:36:46.292Z,2.80
2023-10-24T12:39:14.406Z,3.30
2023-10-24T12:41:43.721Z,3.10
2023-10-24T12:44:11.615Z,3.00
2023-10-24T12:46:39.386Z,2.90
2023-10-24T12:49:07.287Z,2.70
2023-10-24T12:51:35.034Z,3.60
2023-10-24T12:54:02.793Z,4.70
2023-10-24T12:56:30.644Z,5.13
2023-10-24T12:58:59.820Z,5.07
2023-10-24T13:01:30.469Z,4.70
2023-10-24T13:03:58.421Z,4.30
2023-10-24T13:06:26.491Z,3.80
2023-10-24T13:08:54.288Z,3.20
2023-10-24T13:11:22.263Z,3.00
2023-10-24T13:13:50.048Z,3.17
2023-10-24T13:16:19.541Z,3.13
2023-10-24T13:18:47.641Z,2.77
2023-10-24T13:21:15.394Z,2.40
2023-10-24T13:23:45.243Z,3.13
2023-10-24T13:26:13.472Z,3.40
2023-10-24T13:28:41.589Z,2.87
2023-10-24T13:31:15.780Z,3.00
2023-10-24T13:36:21.317Z,2.47
2023-10-24T13:38:51.190Z,3.13
2023-10-24T13:41:19.431Z,2.70
2023-10-24T13:43:47.348Z,2.40
2023-10-24T13:46:15.532Z,3.10
2023-10-24T13:48:43.426Z,2.67
2023-10-24T13:51:12.555Z,2.77
2023-10-24T13:53:41.352Z,2.30
2023-10-24T13:56:09.345Z,2.10
2023-10-24T13:58:37.801Z,2.40
2023-10-24T14:01:08.582Z,2.50
2023-10-24T14:03:37.501Z,1.80
2023-10-24T14:06:06.950Z,1.43
2023-10-24T14:08:37.418Z,1.57
2023-10-24T14:11:07.887Z,1.20
2023-10-24T14:13:36.113Z,1.70
2023-10-24T14:16:04.257Z,1.80
2023-10-24T14:18:32.143Z,1.20
2023-10-24T14:20:59.871Z,1.37
2023-10-24T14:23:27.631Z,1.33
2023-10-24T14:25:56.879Z,1.90
2023-10-24T14:28:25.151Z,1.67
2023-10-24T14:30:52.790Z,1.60
2023-10-24T14:33:20.582Z,1.60
2023-10-24T14:35:48.460Z,1.20
2023-10-24T14:38:16.132Z,1.00
2023-10-24T14:40:44.564Z,1.30
2023-10-24T14:43:13.808Z,1.17
2023-10-24T14:45:42.001Z,1.23
2023-10-24T14:48:09.858Z,1.03
2023-10-24T14:50:37.676Z,1.30
2023-10-24T14:53:05.369Z,1.20
2023-10-24T14:55:33.376Z,1.40
2023-10-24T14:58:01.873Z,1.30
2023-10-24T15:00:32.562Z,1.30
2023-10-24T15:03:01.522Z,1.20
2023-10-24T15:05:29.198Z,1.50
2023-10-24T15:07:56.955Z,1.70
2023-10-24T15:10:24.734Z,1.40
2023-10-24T15:12:52.484Z,1.33
2023-10-24T15:15:20.231Z,1.73
2023-10-24T15:17:49.357Z,1.30
2023-10-24T15:20:17.628Z,1.53
2023-10-24T15:22:45.418Z,1.27
2023-10-24T15:25:14.393Z,1.40
2023-10-24T15:27:42.483Z,1.30
2023-10-24T15:30:10.753Z,1.73
2023-10-24T15:32:38.603Z,2.00
2023-10-24T15:35:11.377Z,1.30
2023-10-24T15:37:39.239Z,1.20
2023-10-24T15:40:09.027Z,1.43
2023-10-24T15:42:37.385Z,1.40
2023-10-24T15:45:05.575Z,1.80
2023-10-24T15:47:37.767Z,1.47
2023-10-24T15:50:07.568Z,2.27
2023-10-24T15:52:35.541Z,3.60
2023-10-24T15:55:21.422Z,3.07
2023-10-24T15:57:56.073Z,3.63
2023-10-24T16:00:25.592Z,3.93
2023-10-24T16:02:53.533Z,3.40
2023-10-24T16:05:24.302Z,3.30
2023-10-24T16:07:51.262Z,2.60
2023-10-24T16:10:19.338Z,3.23
2023-10-24T16:12:46.986Z,3.20
2023-10-24T16:15:14.697Z,3.13
2023-10-24T16:17:42.579Z,2.10
2023-10-24T16:20:10.817Z,2.60
2023-10-24T16:22:39.961Z,2.47
2023-10-24T16:25:08.288Z,2.90
2023-10-24T16:27:35.958Z,2.40
2023-10-24T16:30:04.341Z,2.30
2023-10-24T16:32:32.332Z,2.70
2023-10-24T16:35:00.868Z,2.17
2023-10-24T16:37:28.756Z,2.00
2023-10-24T16:39:57.850Z,2.17
2023-10-24T16:42:26.198Z,1.83
2023-10-24T16:44:54.334Z,1.77
2023-10-24T16:47:22.220Z,1.83
2023-10-24T16:49:49.929Z,2.27
2023-10-24T16:52:17.675Z,2.50
2023-10-24T16:54:46.062Z,2.07
2023-10-24T16:57:15.278Z,1.87
2023-10-24T16:59:42.876Z,2.10
2023-10-24T17:02:10.540Z,2.20
2023-10-24T17:04:38.333Z,2.03
2023-10-24T17:07:06.445Z,2.00
2023-10-24T17:09:35.227Z,2.10
2023-10-24T17:12:02.973Z,2.20
2023-10-24T17:14:32.126Z,2.40
2023-10-24T17:16:59.932Z,1.80
2023-10-24T17:19:27.636Z,2.70
2023-10-24T17:21:55.371Z,2.57
2023-10-24T17:24:23.036Z,2.40
2023-10-24T17:26:50.701Z,2.30
2023-10-24T17:29:18.369Z,2.90
2023-10-24T17:31:47.943Z,3.00
2023-10-24T17:34:16.095Z,2.70
2023-10-24T17:36:43.889Z,2.70
2023-10-24T17:39:11.491Z,2.80
2023-10-24T17:41:39.151Z,2.50
2023-10-24T17:44:06.924Z,3.00
2023-10-24T17:46:34.805Z,2.47
2023-10-24T17:49:03.992Z,2.60
2023-10-24T17:51:34.389Z,2.97
2023-10-24T17:54:07.272Z,3.00
2023-10-24T17:56:36.571Z,2.50
2023-10-24T17:59:04.876Z,2.67
2023-10-24T18:01:32.659Z,2.43
2023-10-24T18:04:00.564Z,2.90
2023-10-24T18:06:29.697Z,2.50
2023-10-24T18:08:57.358Z,3.07
2023-10-24T18:11:26.077Z,2.30
2023-10-24T18:13:55.215Z,2.53
2023-10-24T18:16:23.159Z,2.57
2023-10-24T18:18:52.383Z,2.63
2023-10-24T18:21:20.282Z,3.00
2023-10-24T18:23:49.983Z,3.13
2023-10-24T18:26:17.823Z,2.60
2023-10-24T18:28:45.594Z,4.23
2023-10-24T18:31:13.428Z,4.90
2023-10-24T18:33:41.172Z,4.83
2023-10-24T18:36:09.751Z,3.80
2023-10-24T18:38:41.504Z,4.37
2023-10-24T18:41:10.924Z,3.83
2023-10-24T18:43:39.228Z,3.87
2023-10-24T18:46:07.208Z,4.53
2023-10-24T18:48:33.902Z,4.17
2023-10-24T18:51:05.577Z,4.53
2023-10-24T18:53:33.514Z,4.20
2023-10-24T18:56:01.262Z,3.93
2023-10-24T18:58:31.674Z,4.80
2023-10-24T19:01:00.050Z,4.87
2023-10-24T19:03:29.381Z,4.90
2023-10-24T19:05:58.670Z,4.63
2023-10-24T19:08:26.665Z,4.40
2023-10-24T19:10:56.342Z,4.50
2023-10-24T19:13:24.242Z,4.90
2023-10-24T19:15:53.836Z,4.87
2023-10-24T19:18:21.816Z,4.90
2023-10-24T19:20:49.716Z,4.77
2023-10-24T19:23:17.818Z,4.27
2023-10-24T19:25:46.138Z,4.40
2023-10-24T19:28:14.158Z,4.47
2023-10-24T19:30:42.567Z,4.13
2023-10-24T19:33:12.113Z,4.13
2023-10-24T19:35:39.934Z,4.73
2023-10-24T19:38:08.128Z,4.43
2023-10-24T19:40:36.890Z,4.33
2023-10-24T19:43:05.003Z,4.67
2023-10-24T19:45:33.169Z,4.80
2023-10-24T19:48:06.010Z,4.27
2023-10-24T19:50:36.163Z,4.90
2023-10-24T19:53:04.079Z,4.70
2023-10-24T19:55:33.813Z,4.00
2023-10-24T19:58:01.164Z,3.83
2023-10-24T20:00:30.494Z,4.30
2023-10-24T20:02:59.137Z,4.47
2023-10-24T20:05:27.300Z,4.37
2023-10-24T20:07:58.705Z,4.07
2023-10-24T20:11:40.659Z,3.80
2023-10-24T20:13:18.739Z,4.03
2023-10-24T20:15:46.992Z,4.40
2023-10-24T20:18:15.046Z,4.03
2023-10-24T20:20:43.230Z,4.20
2023-10-24T20:23:13.267Z,4.30
2023-10-24T20:25:41.141Z,3.80
2023-10-24T20:28:08.906Z,3.90
2023-10-24T20:30:37.334Z,3.60
2023-10-24T20:33:05.171Z,4.00
2023-10-24T20:35:33.584Z,3.20
2023-10-24T20:38:01.180Z,3.70
2023-10-24T20:40:30.197Z,3.90
2023-10-24T20:42:57.894Z,3.63
2023-10-24T20:45:25.718Z,3.87
2023-10-24T20:47:53.420Z,3.50
2023-10-24T20:50:21.794Z,4.10
2023-10-24T20:52:49.460Z,3.47
2023-10-24T20:55:17.157Z,3.40
2023-10-24T20:57:46.302Z,3.70
2023-10-24T21:00:14.337Z,4.13
2023-10-24T21:02:41.955Z,3.20
2023-10-24T21:05:09.692Z,3.40
2023-10-24T21:07:37.299Z,3.37
2023-10-24T21:10:05.571Z,3.90
2023-10-24T21:12:33.287Z,3.60
2023-10-24T21:15:04.978Z,3.27
2023-10-24T21:17:32.664Z,3.50
2023-10-24T21:20:00.638Z,3.37
2023-10-24T21:22:28.310Z,3.47
2023-10-24T21:24:55.918Z,3.50
2023-10-24T21:27:24.039Z,2.90
2023-10-24T21:29:51.764Z,2.97
2023-10-24T21:32:20.788Z,3.00
2023-10-24T21:34:51.915Z,3.23
2023-10-24T21:37:19.493Z,3.40
2023-10-24T21:39:47.157Z,2.90
2023-10-24T21:42:14.840Z,2.93
2023-10-24T21:44:50.347Z,2.77
2023-10-24T21:47:21.424Z,2.80
2023-10-24T21:49:49.185Z,2.77
2023-10-24T21:52:17.026Z,3.10
2023-10-24T21:54:45.144Z,3.00
2023-10-24T21:57:13.791Z,3.00
2023-10-24T21:59:41.671Z,2.87
2023-10-24T22:02:09.416Z,2.80
2023-10-24T22:04:39.480Z,3.27
2023-10-24T22:07:07.288Z,2.53
2023-10-24T22:09:35.019Z,2.67
2023-10-24T22:12:02.663Z,2.80
2023-10-24T22:14:30.412Z,3.03
2023-10-24T22:16:58.931Z,2.70
2023-10-24T22:19:26.675Z,2.57
2023-10-24T22:21:55.655Z,2.70
2023-10-24T22:24:23.488Z,2.63
2023-10-24T22:26:51.067Z,2.53
2023-10-24T22:29:18.725Z,2.70
2023-10-24T22:31:46.492Z,2.60
2023-10-24T22:34:14.184Z,2.60
2023-10-24T22:36:41.945Z,2.53
2023-10-24T22:39:11.178Z,2.83
2023-10-24T22:41:39.567Z,2.80
2023-10-24T22:44:07.376Z,2.80
2023-10-24T22:46:35.082Z,2.97
2023-10-24T22:49:02.870Z,3.90
2023-10-24T22:51:30.627Z,2.90
2023-10-24T22:53:58.345Z,3.03
2023-10-24T22:56:28.957Z,3.00
2023-10-24T22:58:56.617Z,2.93
2023-10-24T23:01:24.310Z,3.10
2023-10-24T23:03:52.951Z,2.90
2023-10-24T23:06:20.834Z,3.27
2023-10-24T23:08:48.529Z,3.07
2023-10-24T23:11:16.352Z,3.07
2023-10-24T23:13:45.416Z,2.77
2023-10-24T23:16:13.192Z,2.83
2023-10-24T23:18:42.446Z,2.90
2023-10-24T23:21:10.111Z,3.80
2023-10-24T23:23:37.856Z,2.87
2023-10-24T23:26:05.503Z,2.73
2023-10-24T23:28:33.135Z,3.03
2023-10-24T23:31:02.208Z,2.80
2023-10-24T23:33:30.076Z,2.60
2023-10-24T23:35:57.762Z,2.90
2023-10-24T23:38:25.500Z,2.97
2023-10-24T23:40:53.121Z,2.90
2023-10-24T23:43:20.733Z,3.10
2023-10-24T23:45:48.282Z,2.77
2023-10-24T23:48:17.544Z,2.80
2023-10-24T23:50:45.260Z,2.90
2023-10-24T23:53:13.048Z,2.83
2023-10-24T23:55:40.628Z,3.03
2023-10-24T23:58:08.265Z,3.33
